Flight Track Log - Related Links

Times and Time Zones

All times are in EDT time to prevent confusion due to time zone crossing. See the SWA1834 flight status page for this flight to view local times or setup timezone preferences in your user account.

Time Position Orientation Groundspeed Altitude Reporting Facility
EDT Latitude Longitude Course Direction KTS MPH feet Rate Location/Type
Thu 09:22:33 AM 38.6667 -121.6000 130° Southeast 151 174 900  Level Northern Cal TRACON
Thu 09:23:40 AM 38.6333 -121.5500 90° East 213 245 2,700 2,315 Climbing Northern Cal TRACON
Thu 09:24:40 AM 38.6333 -121.4500 90° East 267 307 5,800 3,018 Climbing Northern Cal TRACON
Thu 09:26:23 AM 38.6322 -121.2792 91° East 292 336 10,900 2,908 Climbing Oakland Center
Thu 09:27:23 AM 38.6303 -121.1569 87° East 314 361 13,700 2,700 Climbing Oakland Center
Thu 09:28:23 AM 38.6347 -121.0319 91° East 354 407 16,300 2,700 Climbing Oakland Center
Thu 09:29:23 AM 38.6325 -120.8964 87° East 372 428 19,100 2,550 Climbing Oakland Center
Thu 09:30:23 AM 38.6386 -120.7528 82° East 382 440 21,400 2,200 Climbing Oakland Center
Thu 09:31:23 AM 38.6550 -120.6039 80° East 409 471 23,500 2,200 Climbing Oakland Center
Thu 09:32:23 AM 38.6753 -120.4494 83° East 428 493 25,800 2,200 Climbing Oakland Center
Thu 09:33:23 AM 38.6911 -120.2897 81° East 439 505 27,900 1,950 Climbing Oakland Center
Thu 09:34:23 AM 38.7108 -120.1297 82° East 447 514 29,700 1,600 Climbing Oakland Center
Thu 09:35:23 AM 38.7283 -119.9644 84° East 452 520 31,100 1,700 Climbing Oakland Center
Thu 09:36:23 AM 38.7433 -119.7858 81° East 462 532 33,100 1,900 Climbing Oakland Center
Thu 09:37:23 AM 38.7625 -119.6206 82° East 462 532 34,900 1,415 Climbing Oakland Center
Thu 09:38:26 AM 38.7792 -119.4578 83° East 462 532 36,000 500 Climbing Oakland Center
Thu 09:39:35 AM 38.7975 -119.2656 82° East 462 532 36,000 512 Level Oakland Center
Thu 09:40:35 AM 38.8158 -119.1025 82° East 462 532 37,100 1,300 Climbing Oakland Center
Thu 09:41:35 AM 38.8319 -118.9475 84° East 457 526 38,600 950 Climbing Oakland Center
Thu 09:42:35 AM 38.8458 -118.7897 82° East 445 512 39,000 200 Climbing Oakland Center
Thu 09:43:35 AM 38.8617 -118.6344 83° East 445 512 39,000  Level Oakland Center
Thu 09:44:35 AM 38.8772 -118.4794 83° East 445 512 39,000  Level Oakland Center
Thu 09:45:35 AM 38.8925 -118.3214 82° East 445 512 39,000  Level Oakland Center
Thu 09:46:35 AM 38.9097 -118.1606 83° East 450 518 39,000  Level Oakland Center
Thu 09:47:34 AM 38.9228 -118.0242 84° East 448 516 39,000  Level Salt Lake Center
Thu 09:48:36 AM 38.9367 -117.8647 84° East 448 516 39,000  Level Salt Lake Center
Thu 09:49:37 AM 38.9506 -117.7042 83° East 449 517 39,000  Level Salt Lake Center
Thu 09:50:39 AM 38.9683 -117.5119 84° East 450 518 39,000  Level Salt Lake Center
Thu 09:51:41 AM 38.9822 -117.3514 83° East 450 518 39,000  Level Salt Lake Center
Thu 09:52:42 AM 38.9964 -117.1903 84° East 451 519 39,000  Level Salt Lake Center
Thu 09:53:44 AM 39.0103 -117.0286 84° East 453 521 39,000  Level Salt Lake Center
Thu 09:54:46 AM 39.0233 -116.8669 84° East 453 521 39,000  Level Salt Lake Center
Thu 09:55:47 AM 39.0361 -116.7064 84° East 452 520 39,000  Level Salt Lake Center
Thu 09:56:49 AM 39.0494 -116.5453 84° East 452 520 39,000  Level Salt Lake Center
Thu 09:57:51 AM 39.0614 -116.3850 85° East 450 518 39,000  Level Salt Lake Center
Thu 09:58:52 AM 39.0733 -116.2228 84° East 453 521 39,000  Level Salt Lake Center
Thu 09:59:54 AM 39.0861 -116.0611 84° East 453 521 39,000  Level Salt Lake Center
Thu 10:00:55 AM 39.1008 -115.8675 84° East 453 521 39,000  Level Salt Lake Center
Thu 10:01:57 AM 39.1139 -115.7042 85° East 456 525 39,000  Level Salt Lake Center
Thu 10:02:59 AM 39.1253 -115.5419 85° East 455 524 39,000  Level Salt Lake Center
Thu 10:04:00 AM 39.1358 -115.3817 84° East 459 528 39,000  Level Salt Lake Center
Thu 10:05:02 AM 39.1489 -115.2144 85° East 462 532 39,000  Level Salt Lake Center
Thu 10:06:04 AM 39.1600 -115.0492 86° East 459 528 39,000  Level Salt Lake Center
Thu 10:07:05 AM 39.1694 -114.8744 85° East 456 525 39,000  Level Salt Lake Center
Thu 10:08:07 AM 39.1800 -114.7181 85° East 458 527 39,000  Level Salt Lake Center
Thu 10:09:09 AM 39.1917 -114.5356 85° East 459 528 39,000  Level Salt Lake Center
Thu 10:10:10 AM 39.2011 -114.3794 84° East 457 526 39,000  Level Salt Lake Center
Thu 10:11:12 AM 39.2139 -114.2178 86° East 463 533 39,000  Level Salt Lake Center
Thu 10:12:14 AM 39.2236 -114.0522 86° East 459 528 39,000  Level Salt Lake Center
Thu 10:13:16 AM 39.2328 -113.8861 86° East 457 526 39,000  Level Salt Lake Center
Thu 10:14:17 AM 39.2436 -113.6875 86° East 455 524 39,000  Level Salt Lake Center
Thu 10:15:19 AM 39.2525 -113.5211 86° East 456 525 39,000  Level Salt Lake Center
Thu 10:16:21 AM 39.2611 -113.3550 86° East 456 525 39,000  Level Salt Lake Center
Thu 10:17:23 AM 39.2697 -113.1892 86° East 456 525 39,000  Level Salt Lake Center
Thu 10:18:25 AM 39.2783 -113.0217 86° East 458 527 39,000  Level Salt Lake Center
Thu 10:19:26 AM 39.2861 -112.8561 86° East 457 526 39,000  Level Salt Lake Center
Thu 10:20:28 AM 39.2942 -112.6903 86° East 456 525 39,000  Level Salt Lake Center
Thu 10:21:30 AM 39.3025 -112.5194 77° East 452 520 39,000  Level Salt Lake Center
Thu 10:22:32 AM 39.3311 -112.3611 77° East 451 519 39,000  Level Salt Lake Center
Thu 10:23:34 AM 39.3592 -112.2028 77° East 452 520 39,000  Level Salt Lake Center
Thu 10:24:36 AM 39.3883 -112.0447 76° East 449 517 39,000  Level Salt Lake Center
Thu 10:25:38 AM 39.4175 -111.8875 76° East 448 516 39,000  Level Salt Lake Center
Thu 10:26:39 AM 39.4472 -111.7297 77° East 449 517 39,000  Level Salt Lake Center
Thu 10:27:41 AM 39.4756 -111.5717 77° East 448 516 39,000  Level Salt Lake Center
Thu 10:28:43 AM 39.5086 -111.3853 77° East 452 520 39,000  Level Salt Lake Center
Thu 10:29:45 AM 39.5339 -111.2403 77° East 454 522 39,000  Level Salt Lake Center
Thu 10:30:47 AM 39.5658 -111.0631 77° East 453 521 39,000  Level Salt Lake Center
Thu 10:31:49 AM 39.5925 -110.9100 77° East 454 522 39,000  Level Salt Lake Center
Thu 10:32:51 AM 39.6231 -110.7311 77° East 455 524 39,000  Level Salt Lake Center
Thu 10:33:53 AM 39.6494 -110.5769 78° East 457 526 39,000  Level Salt Lake Center
Thu 10:34:55 AM 39.6803 -110.3947 78° East 461 531 39,000  Level Salt Lake Center
Thu 10:35:57 AM 39.7064 -110.2375 78° East 464 534 39,000  Level Salt Lake Center
Thu 10:36:59 AM 39.7372 -110.0556 78° East 463 533 39,000  Level Salt Lake Center
Thu 10:38:01 AM 39.7628 -109.9008 78° East 460 529 39,000  Level Salt Lake Center
Thu 10:39:03 AM 39.7919 -109.7200 78° East 458 527 39,000  Level Salt Lake Center
Thu 10:40:06 AM 39.8164 -109.5656 78° East 456 525 39,000  Level Salt Lake Center
Thu 10:41:08 AM 39.8414 -109.4106 78° East 457 526 39,000  Level Salt Lake Center
Thu 10:42:10 AM 39.8706 -109.2283 78° East 458 527 39,000  Level Salt Lake Center
Thu 10:43:12 AM 39.8956 -109.0694 78° East 462 532 39,000  Level Salt Lake Center
Thu 10:44:14 AM 39.9247 -108.8819 79° East 467 537 39,000  Level Salt Lake Center
Thu 10:45:16 AM 39.9489 -108.7203 79° East 469 540 39,000  Level Salt Lake Center
Thu 10:46:18 AM 39.9775 -108.5317 79° East 471 542 39,000  Level Salt Lake Center
Thu 10:47:38 AM 40.0094 -108.3158 79° East 470 541 39,000  Level Denver Center
Thu 10:48:41 AM 40.0331 -108.1547 79° East 471 542 39,000  Level Denver Center
Thu 10:49:43 AM 40.0606 -107.9669 75° East 471 542 39,000  Level Denver Center
Thu 10:50:46 AM 40.0936 -107.8092 79° East 466 536 39,000  Level Denver Center
Thu 10:51:48 AM 40.1214 -107.6186 81° East 477 549 39,000  Level Denver Center
Thu 10:52:51 AM 40.1411 -107.4528 81° East 480 552 39,000  Level Denver Center
Thu 10:53:53 AM 40.1633 -107.2614 82° East 479 551 39,000  Level Denver Center
Thu 10:54:56 AM 40.1819 -107.0972 82° East 477 549 39,000  Level Denver Center
Thu 10:55:58 AM 40.2028 -106.9031 81° East 481 554 39,000  Level Denver Center
Thu 10:57:01 AM 40.2208 -106.7447 81° East 481 554 39,000 -1,248 Level Denver Center
Thu 10:58:03 AM 40.2453 -106.5406 83° East 474 545 36,400 -2,256 Descending Denver Center
Thu 10:59:06 AM 40.2597 -106.3836 82° East 475 547 34,300 -2,832 Descending Denver Center
Thu 11:00:08 AM 40.2803 -106.1961 83° East 468 539 30,500 -3,290 Descending Denver Center
Thu 11:01:10 AM 40.2956 -106.0350 82° East 458 527 27,500 -2,784 Descending Denver Center
Thu 11:02:13 AM 40.3133 -105.8714 83° East 450 518 24,700 -3,024 Descending Denver Center
Thu 11:03:15 AM 40.3322 -105.6814 83° East 446 513 21,200 -2,736 Descending Denver Center
Thu 11:04:18 AM 40.3475 -105.5217 107° East 440 506 19,000 -1,248 Descending Denver Center
Thu 11:05:20 AM 40.3164 -105.3867 130° Southeast 371 427 18,600 -864 Descending Denver Center
Thu 11:06:23 AM 40.2514 -105.2836 104° East 365 420 17,200 -1,440 Descending Denver Center
Thu 11:07:25 AM 40.2253 -105.1475 104° East 361 415 15,600 -1,680 Descending Denver Center
Thu 11:08:28 AM 40.2014 -105.0264 104° East 347 399 13,700 -1,920 Descending Denver Center
Thu 11:09:30 AM 40.1775 -104.9025 133° Southeast 332 382 11,600 -1,776 Descending Denver Center
Thu 11:10:33 AM 40.1167 -104.8167 128° Southeast 311 358 10,000 -1,366 Descending Denver TRACON
Thu 11:11:33 AM 40.0667 -104.7333 143° Southeast 279 321 8,800 -1,100 Descending Denver TRACON
Thu 11:12:33 AM 40.0167 -104.6833 180° South 245 282 7,800 -1,050 Descending Denver TRACON
Thu 11:13:33 AM 39.9667 -104.6833 180° South 187 215 6,700 -1,053 Descending Denver TRACON
Thu 11:14:27 AM 39.9167 -104.6833 172° South 159 183 5,800 -1,000 Descending Denver TRACON
Thu 11:23:32 AM 38.8315 -104.4857 172° South  Level Estimated

Login

Don't have an account? Register now (free) for customized features, flight alerts, and more!